Time;durP1;ratioP1;P1;durP2;ratioP2;P2;SDS_P1;SDS_P2;PMS_P1;PMS_P2;Temp;Humidity;BMP_temperature;BMP_pressure;BME280_temperature;BME280_humidity;BME280_pressure;Samples;Min_cycle;Max_cycle;Signal;HPM_P1;HPM_P2
2023/05/27 00:00:53;;;;;;;7.95;3.10;;;;;;;;;;13004636;19;20010;-63
2023/05/27 00:05:17;;;;;;;7.60;2.75;;;;;;;;;;13004797;19;20015;-63
2023/05/27 00:09:35;;;;;;;;;;;;;;;;;;13004861;19;20045;-64
2023/05/27 00:13:53;;;;;;;7.63;3.13;;;;;;;;;;13003381;19;19929;-64
2023/05/27 00:18:11;;;;;;;;;;;;;;;;;;13003244;19;20431;-63
2023/05/27 00:22:29;;;;;;;5.15;2.88;;;;;;;;;;13003818;19;19919;-64
2023/05/27 00:26:47;;;;;;;6.75;2.47;;;;;;;;;;13002689;19;20041;-64
2023/05/27 00:31:05;;;;;;;6.15;3.25;;;;;;;;;;13001911;19;20030;-64
2023/05/27 00:35:25;;;;;;;4.60;2.65;;;;;;;;;;13002496;19;20041;-64
2023/05/27 00:39:43;;;;;;;8.70;3.22;;;;;;;;;;13003020;19;20014;-64
2023/05/27 00:44:01;;;;;;;;;;;;;;;;;;13002119;19;20546;-64
2023/05/27 00:48:19;;;;;;;6.20;2.83;;;;;;;;;;13003225;19;19911;-64
2023/05/27 00:52:38;;;;;;;5.88;2.60;;;;;;;;;;12998356;19;20022;-64
2023/05/27 00:56:57;;;;;;;6.15;2.72;;;;;;;;;;13001479;19;20484;-64
2023/05/27 01:01:14;;;;;;;4.68;3.05;;;;;;;;;;13000518;19;20338;-64
2023/05/27 01:05:34;;;;;;;5.85;2.97;;;;;;;;;;13003332;19;20002;-64
2023/05/27 01:10:00;;;;;;;7.38;2.70;;;;;;;;;;12999520;19;20010;-65
2023/05/27 01:14:20;;;;;;;8.05;3.15;;;;;;;;;;12998958;19;20010;-65
2023/05/27 01:18:40;;;;;;;6.72;2.75;;;;;;;;;;12998830;19;20018;-66
2023/05/27 01:23:00;;;;;;;8.60;2.17;;;;;;;;;;12999933;19;20006;-65
2023/05/27 01:27:18;;;;;;;7.95;2.83;;;;;;;;;;12999889;19;20022;-65
2023/05/27 01:31:53;;;;;;;7.03;2.53;;;;;;;;;;12999539;19;20447;-66
2023/05/27 01:36:20;;;;;;;5.13;2.80;;;;;;;;;;12996415;19;20022;-65
2023/05/27 01:40:40;;;;;;;7.50;2.50;;;;;;;;;;12998821;19;20010;-64
2023/05/27 01:45:00;;;;;;;6.68;2.38;;;;;;;;;;12998427;19;20015;-65
2023/05/27 01:49:18;;;;;;;6.07;2.33;;;;;;;;;;12998587;19;20017;-66
2023/05/27 01:53:37;;;;;;;8.93;2.28;;;;;;;;;;12997616;19;20354;-64
2023/05/27 01:57:54;;;;;;;12.13;2.83;;;;;;;;;;13005413;19;20525;-65
2023/05/27 02:02:12;;;;;;;7.60;2.53;;;;;;;;;;13010239;19;20003;-66
2023/05/27 02:06:32;;;;;;;6.10;2.13;;;;;;;;;;13010792;19;20011;-65
2023/05/27 02:10:50;;;;;;;6.18;2.38;;;;;;;;;;13010253;19;20011;-65
2023/05/27 02:15:09;;;;;;;7.90;2.35;;;;;;;;;;13008172;19;20338;-66
2023/05/27 02:19:26;;;;;;;11.17;2.57;;;;;;;;;;13007219;19;20015;-65
2023/05/27 02:23:45;;;;;;;4.65;1.90;;;;;;;;;;13009152;19;20359;-64
2023/05/27 02:28:03;;;;;;;8.60;3.38;;;;;;;;;;13008630;19;20023;-65
2023/05/27 02:32:21;;;;;;;7.45;3.47;;;;;;;;;;13007008;19;20026;-66
2023/05/27 02:36:39;;;;;;;9.93;3.08;;;;;;;;;;13007926;19;20473;-65
2023/05/27 02:40:58;;;;;;;6.85;3.30;;;;;;;;;;13008280;19;20006;-65
2023/05/27 02:45:15;;;;;;;6.57;2.97;;;;;;;;;;13007075;19;20390;-65
2023/05/27 02:49:33;;;;;;;5.50;2.08;;;;;;;;;;13008031;19;20011;-65
2023/05/27 02:53:51;;;;;;;;;;;;;;;;;;13008181;19;20007;-65
2023/05/27 02:58:09;;;;;;;8.18;1.80;;;;;;;;;;13006762;19;20318;-65
2023/05/27 03:02:28;;;;;;;6.90;2.38;;;;;;;;;;13007641;19;20014;-65
2023/05/27 03:06:47;;;;;;;8.27;2.75;;;;;;;;;;13006331;19;20007;-65
2023/05/27 03:11:05;;;;;;;15.07;3.40;;;;;;;;;;13006494;19;20030;-65
2023/05/27 03:15:24;;;;;;;16.38;8.30;;;;;;;;;;13006157;19;20018;-65
2023/05/27 03:19:43;;;;;;;10.18;4.07;;;;;;;;;;13006937;19;20469;-65
2023/05/27 03:24:02;;;;;;;9.57;3.17;;;;;;;;;;13005835;19;20038;-65
2023/05/27 03:28:21;;;;;;;8.20;2.20;;;;;;;;;;13005875;19;20034;-65
2023/05/27 03:32:38;;;;;;;5.38;2.00;;;;;;;;;;13005469;19;20015;-66
2023/05/27 03:36:56;;;;;;;8.80;2.58;;;;;;;;;;13004797;19;20015;-65
2023/05/27 03:41:15;;;;;;;6.90;2.35;;;;;;;;;;13004990;19;20029;-66
2023/05/27 03:45:33;;;;;;;9.68;2.47;;;;;;;;;;13004602;19;20034;-64
2023/05/27 03:49:52;;;;;;;7.15;2.50;;;;;;;;;;13005114;19;20342;-65
2023/05/27 03:54:10;;;;;;;7.55;2.20;;;;;;;;;;13004542;19;20011;-66
2023/05/27 03:58:29;;;;;;;5.38;2.83;;;;;;;;;;13004489;19;20028;-64
2023/05/27 04:02:47;;;;;;;;;;;;;;;;;;13005191;19;20466;-64
2023/05/27 04:07:07;;;;;;;6.75;2.30;;;;;;;;;;13004061;19;19979;-64
2023/05/27 04:11:27;;;;;;;4.28;1.60;;;;;;;;;;13003454;19;20347;-64
2023/05/27 04:15:46;;;;;;;7.60;1.95;;;;;;;;;;13002848;19;20021;-64
2023/05/27 04:20:13;;;;;;;;;;;;;;;;;;13001957;19;20010;-65
2023/05/27 04:24:32;;;;;;;8.95;2.55;;;;;;;;;;13003256;19;19914;-65
2023/05/27 04:28:50;;;;;;;11.73;2.78;;;;;;;;;;13002659;19;20015;-65
2023/05/27 04:33:07;;;;;;;9.85;2.10;;;;;;;;;;13001759;19;20014;-64
2023/05/27 04:37:27;;;;;;;5.93;1.98;;;;;;;;;;13002155;19;20480;-65
2023/05/27 04:41:45;;;;;;;9.48;1.75;;;;;;;;;;13002059;19;20015;-64
2023/05/27 04:46:03;;;;;;;7.78;2.00;;;;;;;;;;13001195;19;20006;-66
2023/05/27 04:50:23;;;;;;;5.70;2.17;;;;;;;;;;13001902;19;20039;-66
2023/05/27 04:54:40;;;;;;;9.52;2.22;;;;;;;;;;13001285;19;20011;-64
2023/05/27 04:58:59;;;;;;;6.03;1.92;;;;;;;;;;13001118;19;20014;-65
2023/05/27 05:03:36;;;;;;;6.65;2.17;;;;;;;;;;13000962;19;20014;-64
2023/05/27 05:07:55;;;;;;;5.82;1.90;;;;;;;;;;13001800;19;20021;-64
2023/05/27 05:12:13;;;;;;;;;;;;;;;;;;13000660;19;20025;-65
2023/05/27 05:16:31;;;;;;;;;;;;;;;;;;13001187;19;19915;-65
2023/05/27 05:20:49;;;;;;;6.65;1.55;;;;;;;;;;13000619;19;19922;-64
2023/05/27 05:25:07;;;;;;;11.43;2.28;;;;;;;;;;12999355;19;20038;-64
2023/05/27 05:29:25;;;;;;;4.05;1.90;;;;;;;;;;13000106;19;20011;-64
2023/05/27 05:33:43;;;;;;;5.38;1.85;;;;;;;;;;13009301;19;20497;-64
2023/05/27 05:38:01;;;;;;;5.53;1.85;;;;;;;;;;13011343;19;20003;-64
2023/05/27 05:42:19;;;;;;;7.80;2.03;;;;;;;;;;13011515;19;20334;-66
2023/05/27 05:46:36;;;;;;;3.43;1.77;;;;;;;;;;13009806;19;20015;-65
2023/05/27 05:50:55;;;;;;;7.25;1.60;;;;;;;;;;13011287;19;19998;-64
2023/05/27 05:55:14;;;;;;;9.45;1.60;;;;;;;;;;13010064;19;20002;-65
2023/05/27 05:59:32;;;;;;;12.05;1.80;;;;;;;;;;13011197;19;20013;-65
2023/05/27 06:03:51;;;;;;;7.18;1.95;;;;;;;;;;13010950;19;20098;-65
2023/05/27 06:08:10;;;;;;;6.82;1.88;;;;;;;;;;13010397;19;20010;-65
2023/05/27 06:12:27;;;;;;;7.40;1.95;;;;;;;;;;13009930;19;19999;-64
2023/05/27 06:16:46;;;;;;;5.95;1.92;;;;;;;;;;13008997;19;20014;-65
2023/05/27 06:21:04;;;;;;;5.93;1.77;;;;;;;;;;13009124;19;20381;-65
2023/05/27 06:25:22;;;;;;;6.45;1.90;;;;;;;;;;13009492;19;20346;-66
2023/05/27 06:29:39;;;;;;;5.63;1.85;;;;;;;;;;13009626;19;20030;-65
2023/05/27 06:33:57;;;;;;;6.00;1.27;;;;;;;;;;13008882;19;20359;-65
2023/05/27 06:38:16;;;;;;;4.53;1.77;;;;;;;;;;13008096;19;20013;-64
2023/05/27 06:42:34;;;;;;;5.93;1.58;;;;;;;;;;13006487;19;20347;-65
2023/05/27 06:46:51;;;;;;;7.82;2.00;;;;;;;;;;13009308;19;20006;-66
2023/05/27 06:51:10;;;;;;;5.78;1.27;;;;;;;;;;13007577;19;20014;-65
2023/05/27 06:55:27;;;;;;;2.67;1.20;;;;;;;;;;13007022;19;20496;-67
2023/05/27 06:59:45;;;;;;;;;;;;;;;;;;13008414;19;20011;-65
2023/05/27 07:04:03;;;;;;;7.68;1.83;;;;;;;;;;13007027;19;20369;-65
2023/05/27 07:08:21;;;;;;;7.93;1.77;;;;;;;;;;13007336;19;20046;-64
2023/05/27 07:12:39;;;;;;;4.82;1.33;;;;;;;;;;13007165;19;20313;-64
2023/05/27 07:16:58;;;;;;;4.25;1.05;;;;;;;;;;13006118;19;20003;-64
2023/05/27 07:21:17;;;;;;;;;;;;;;;;;;13007241;19;20018;-65
2023/05/27 07:25:35;;;;;;;7.18;1.50;;;;;;;;;;13004257;19;19915;-65
2023/05/27 07:29:53;;;;;;;;;;;;;;;;;;13005028;19;20028;-66
2023/05/27 07:34:11;;;;;;;;;;;;;;;;;;13006096;19;19915;-65
2023/05/27 07:38:30;;;;;;;9.13;1.60;;;;;;;;;;13005003;19;19979;-64
2023/05/27 07:42:48;;;;;;;5.22;1.30;;;;;;;;;;13004408;19;20015;-64
2023/05/27 07:47:06;;;;;;;4.97;1.33;;;;;;;;;;13004591;19;20011;-64
2023/05/27 07:51:23;;;;;;;6.38;1.70;;;;;;;;;;13004948;19;20322;-64
2023/05/27 07:55:45;;;;;;;5.55;1.95;;;;;;;;;;13001251;19;20022;-64
2023/05/27 08:00:06;;;;;;;4.78;1.73;;;;;;;;;;13003440;19;20003;-65
2023/05/27 08:04:24;;;;;;;10.10;2.08;;;;;;;;;;13004364;19;20010;-65
2023/05/27 08:08:44;;;;;;;6.07;1.55;;;;;;;;;;13003858;19;20006;-64
2023/05/27 08:13:02;;;;;;;8.70;3.03;;;;;;;;;;13003139;19;20021;-64
2023/05/27 08:17:20;;;;;;;4.45;1.63;;;;;;;;;;13003286;19;20021;-65
2023/05/27 08:21:39;;;;;;;12.13;1.98;;;;;;;;;;13004097;19;20322;-66
2023/05/27 08:25:57;;;;;;;5.60;1.38;;;;;;;;;;13002717;19;20042;-64
2023/05/27 08:30:15;;;;;;;;;;;;;;;;;;13002862;19;20465;-64
2023/05/27 08:34:33;;;;;;;;;;;;;;;;;;13003366;19;20357;-64
2023/05/27 08:38:51;;;;;;;4.30;1.48;;;;;;;;;;13002234;19;19930;-64
2023/05/27 08:43:09;;;;;;;5.47;1.60;;;;;;;;;;13000913;19;20014;-64
2023/05/27 08:47:30;;;;;;;6.38;1.40;;;;;;;;;;13002325;19;20362;-64
2023/05/27 08:51:50;;;;;;;4.60;1.23;;;;;;;;;;13001944;19;20027;-64
2023/05/27 08:56:14;;;;;;;6.07;1.67;;;;;;;;;;13000683;19;20349;-64
2023/05/27 09:00:32;;;;;;;2.85;1.15;;;;;;;;;;13000379;19;20026;-66
2023/05/27 09:04:50;;;;;;;4.40;1.35;;;;;;;;;;13002067;19;20010;-64
2023/05/27 09:09:11;;;;;;;11.00;1.58;;;;;;;;;;13013348;19;20007;-64
2023/05/27 09:13:31;;;;;;;5.35;2.05;;;;;;;;;;13014173;19;20357;-65
2023/05/27 09:17:48;;;;;;;2.92;0.98;;;;;;;;;;13010874;19;20003;-65
2023/05/27 09:22:06;;;;;;;4.10;1.48;;;;;;;;;;13012675;19;20022;-65
2023/05/27 09:26:25;;;;;;;5.75;1.70;;;;;;;;;;13012721;19;20026;-65
2023/05/27 09:30:44;;;;;;;5.68;2.33;;;;;;;;;;13012968;19;20433;-64
2023/05/27 09:35:07;;;;;;;4.20;1.75;;;;;;;;;;13012376;19;20038;-65
2023/05/27 09:39:25;;;;;;;5.88;1.77;;;;;;;;;;13013185;19;20370;-65
2023/05/27 09:43:53;;;;;;;3.97;1.63;;;;;;;;;;13009049;19;20021;-67
2023/05/27 09:48:13;;;;;;;5.55;1.55;;;;;;;;;;13011285;19;20025;-63
2023/05/27 09:52:32;;;;;;;2.40;1.30;;;;;;;;;;13012153;19;20469;-62
2023/05/27 09:57:00;;;;;;;6.55;1.75;;;;;;;;;;13011839;19;20010;-62
2023/05/27 10:01:18;;;;;;;;;;;;;;;;;;13012077;19;20010;-63
2023/05/27 10:05:38;;;;;;;4.57;1.40;;;;;;;;;;13011404;19;19938;-63
2023/05/27 10:09:57;;;;;;;3.72;1.30;;;;;;;;;;13011220;19;20007;-62
2023/05/27 10:14:16;;;;;;;2.58;1.67;;;;;;;;;;13010122;19;19998;-62
2023/05/27 10:18:34;;;;;;;4.47;1.80;;;;;;;;;;13006622;19;20465;-63
2023/05/27 10:22:53;;;;;;;6.30;2.28;;;;;;;;;;13010671;19;20014;-63
2023/05/27 10:27:11;;;;;;;3.78;1.85;;;;;;;;;;13006689;19;20374;-62
2023/05/27 10:31:30;;;;;;;4.13;1.73;;;;;;;;;;13009340;19;20021;-63
2023/05/27 10:35:49;;;;;;;3.63;1.77;;;;;;;;;;13008937;19;20089;-62
2023/05/27 10:40:09;;;;;;;5.07;1.90;;;;;;;;;;13008442;19;20354;-62
2023/05/27 10:44:29;;;;;;;2.97;1.58;;;;;;;;;;13007997;19;20025;-62
2023/05/27 10:48:47;;;;;;;5.68;1.98;;;;;;;;;;13008520;19;20013;-63
2023/05/27 10:53:07;;;;;;;3.42;1.60;;;;;;;;;;13007617;19;20033;-63
2023/05/27 10:57:29;;;;;;;2.78;1.80;;;;;;;;;;13008241;19;20015;-63
2023/05/27 11:01:53;;;;;;;2.53;1.42;;;;;;;;;;13008391;19;20014;-63
2023/05/27 11:06:16;;;;;;;4.35;1.17;;;;;;;;;;13008053;19;20026;-63
2023/05/27 11:10:36;;;;;;;7.50;1.70;;;;;;;;;;13007281;19;20007;-63
2023/05/27 11:14:56;;;;;;;3.97;1.60;;;;;;;;;;13006975;19;20418;-63
2023/05/27 11:19:15;;;;;;;4.75;1.70;;;;;;;;;;13006290;19;20098;-63
2023/05/27 11:23:39;;;;;;;5.35;1.77;;;;;;;;;;13006922;19;20014;-63
2023/05/27 11:27:58;;;;;;;7.03;1.55;;;;;;;;;;13006363;19;20010;-63
2023/05/27 11:32:16;;;;;;;;;;;;;;;;;;13006758;19;20010;-63
2023/05/27 11:36:36;;;;;;;4.13;1.58;;;;;;;;;;13004922;19;20276;-63
2023/05/27 11:40:55;;;;;;;3.25;1.45;;;;;;;;;;13005809;19;20677;-62
2023/05/27 11:45:21;;;;;;;5.68;1.50;;;;;;;;;;13003674;19;20037;-63
2023/05/27 11:49:39;;;;;;;4.40;1.45;;;;;;;;;;13005509;19;20002;-62
2023/05/27 11:54:00;;;;;;;3.47;1.42;;;;;;;;;;13003263;19;20011;-63
2023/05/27 11:58:18;;;;;;;2.50;1.27;;;;;;;;;;13003503;19;20011;-63
2023/05/27 12:02:36;;;;;;;2.58;1.25;;;;;;;;;;13004661;19;20007;-63
2023/05/27 12:06:54;;;;;;;6.78;1.55;;;;;;;;;;13004012;19;20017;-63
2023/05/27 12:11:15;;;;;;;5.60;1.23;;;;;;;;;;13003496;19;20342;-63
2023/05/27 12:15:35;;;;;;;3.75;1.58;;;;;;;;;;13003115;19;20480;-63
2023/05/27 12:19:53;;;;;;;3.20;1.13;;;;;;;;;;13003351;19;20034;-63
2023/05/27 12:24:10;;;;;;;5.40;1.50;;;;;;;;;;13002981;19;20019;-63
2023/05/27 12:28:28;;;;;;;3.38;1.48;;;;;;;;;;13003199;19;20053;-63
2023/05/27 12:32:46;;;;;;;2.67;0.95;;;;;;;;;;13003052;19;20006;-62
2023/05/27 12:37:05;;;;;;;3.20;1.35;;;;;;;;;;13001814;19;20015;-62
2023/05/27 12:41:23;;;;;;;5.57;1.40;;;;;;;;;;13001205;19;20115;-62
2023/05/27 12:45:41;;;;;;;2.20;1.10;;;;;;;;;;13001415;19;20011;-63
2023/05/27 12:49:59;;;;;;;4.82;1.00;;;;;;;;;;12999145;19;20013;-63
2023/05/27 12:54:18;;;;;;;4.13;1.50;;;;;;;;;;13001179;19;20014;-62
2023/05/27 12:58:36;;;;;;;2.88;0.95;;;;;;;;;;13001610;19;20007;-63
2023/05/27 13:02:54;;;;;;;2.78;0.98;;;;;;;;;;13000920;19;20014;-62
2023/05/27 13:07:39;;;;;;;2.10;1.00;;;;;;;;;;13001190;19;20025;-63
2023/05/27 13:11:57;;;;;;;2.47;1.10;;;;;;;;;;13001165;19;20338;-63
2023/05/27 13:16:15;;;;;;;1.73;1.00;;;;;;;;;;12999900;19;20007;-62
2023/05/27 13:20:33;;;;;;;2.80;1.08;;;;;;;;;;13000473;19;20010;-63
2023/05/27 13:24:51;;;;;;;3.58;1.10;;;;;;;;;;13000117;19;20013;-63
2023/05/27 13:29:09;;;;;;;2.30;1.17;;;;;;;;;;12999380;19;20030;-62
2023/05/27 13:33:26;;;;;;;6.90;1.20;;;;;;;;;;12998349;19;20007;-63
2023/05/27 13:37:44;;;;;;;3.05;0.95;;;;;;;;;;12999079;19;20002;-62
2023/05/27 13:42:03;;;;;;;1.08;0.85;;;;;;;;;;12997922;19;20469;-62
2023/05/27 13:46:21;;;;;;;2.25;1.00;;;;;;;;;;12998518;19;20030;-62
2023/05/27 13:50:39;;;;;;;1.80;0.88;;;;;;;;;;12998705;19;20018;-62
2023/05/27 13:54:57;;;;;;;2.13;1.10;;;;;;;;;;13009112;19;20010;-63
2023/05/27 13:59:16;;;;;;;2.17;1.30;;;;;;;;;;13009963;19;20033;-62
2023/05/27 14:03:33;;;;;;;8.00;1.33;;;;;;;;;;13011304;19;20014;-62
2023/05/27 14:07:52;;;;;;;1.77;1.20;;;;;;;;;;13010785;19;20002;-63
2023/05/27 14:12:09;;;;;;;3.67;1.40;;;;;;;;;;13009671;19;20011;-63
2023/05/27 14:16:28;;;;;;;5.05;1.30;;;;;;;;;;13009738;19;20007;-62
2023/05/27 14:20:47;;;;;;;0.75;0.68;;;;;;;;;;13009439;19;20006;-62
2023/05/27 14:25:23;;;;;;;3.15;0.88;;;;;;;;;;13010084;19;20011;-62
2023/05/27 14:29:42;;;;;;;2.10;1.10;;;;;;;;;;13011527;19;20453;-62
2023/05/27 14:34:00;;;;;;;1.00;0.57;;;;;;;;;;13010301;19;20010;-62
2023/05/27 14:38:18;;;;;;;2.55;1.05;;;;;;;;;;13009083;19;20015;-62
2023/05/27 14:42:36;;;;;;;2.08;1.10;;;;;;;;;;13009659;19;20468;-62
2023/05/27 14:46:53;;;;;;;4.22;1.10;;;;;;;;;;13009749;19;20030;-62
2023/05/27 14:51:12;;;;;;;4.22;1.73;;;;;;;;;;13009151;19;20011;-62
2023/05/27 14:55:30;;;;;;;2.92;1.13;;;;;;;;;;13010216;19;20007;-62
2023/05/27 14:59:48;;;;;;;1.80;0.93;;;;;;;;;;13008765;19;19995;-63
2023/05/27 15:04:05;;;;;;;3.58;0.90;;;;;;;;;;13006212;19;20033;-63
2023/05/27 15:08:26;;;;;;;3.15;1.23;;;;;;;;;;13008922;19;20010;-63
2023/05/27 15:12:46;;;;;;;2.22;1.10;;;;;;;;;;13008726;19;20002;-63
2023/05/27 15:17:05;;;;;;;3.03;1.13;;;;;;;;;;13007452;19;20007;-62
2023/05/27 15:21:23;;;;;;;;;;;;;;;;;;13008366;19;20002;-63
2023/05/27 15:25:41;;;;;;;0.73;0.68;;;;;;;;;;13007893;19;19911;-63
2023/05/27 15:29:58;;;;;;;1.80;0.85;;;;;;;;;;13007736;19;20007;-63
2023/05/27 15:34:17;;;;;;;2.22;0.80;;;;;;;;;;13006888;19;20110;-63
2023/05/27 15:38:35;;;;;;;2.65;0.90;;;;;;;;;;13007288;19;20006;-63
2023/05/27 15:42:54;;;;;;;4.07;0.90;;;;;;;;;;13007193;19;20018;-63
2023/05/27 15:47:13;;;;;;;2.72;1.33;;;;;;;;;;13006376;19;20465;-63
2023/05/27 15:51:31;;;;;;;4.78;1.52;;;;;;;;;;13006877;19;20010;-62
2023/05/27 15:55:49;;;;;;;1.77;1.08;;;;;;;;;;13006016;19;20019;-63
2023/05/27 16:00:10;;;;;;;1.98;0.95;;;;;;;;;;13004981;19;20037;-63
2023/05/27 16:04:33;;;;;;;7.53;1.17;;;;;;;;;;13006160;19;20130;-62
2023/05/27 16:08:51;;;;;;;2.67;1.08;;;;;;;;;;13005435;19;20017;-63
2023/05/27 16:13:10;;;;;;;2.72;1.25;;;;;;;;;;13005304;19;20034;-63
2023/05/27 16:17:29;;;;;;;3.50;1.17;;;;;;;;;;13002320;19;20087;-63
2023/05/27 16:21:48;;;;;;;4.70;1.20;;;;;;;;;;13004175;19;20006;-63
2023/05/27 16:26:05;;;;;;;;;;;;;;;;;;13004590;19;20014;-63
2023/05/27 16:30:25;;;;;;;4.05;1.10;;;;;;;;;;13003872;19;20237;-63
2023/05/27 16:34:43;;;;;;;3.53;1.27;;;;;;;;;;13004230;19;20014;-62
2023/05/27 16:39:01;;;;;;;;;;;;;;;;;;13003266;19;20017;-63
2023/05/27 16:43:19;;;;;;;3.25;1.13;;;;;;;;;;13002704;19;19941;-62
2023/05/27 16:47:37;;;;;;;;;;;;;;;;;;13004504;19;20002;-62
2023/05/27 16:51:55;;;;;;;;;;;;;;;;;;13003658;19;19918;-62
2023/05/27 16:56:13;;;;;;;3.08;1.63;;;;;;;;;;13003037;19;19942;-63
2023/05/27 17:00:30;;;;;;;;;;;;;;;;;;13003305;19;20473;-62
2023/05/27 17:04:48;;;;;;;5.72;2.15;;;;;;;;;;13001956;19;19907;-62
2023/05/27 17:09:07;;;;;;;2.58;1.20;;;;;;;;;;13001179;19;20351;-63
2023/05/27 17:13:27;;;;;;;2.42;1.08;;;;;;;;;;13002175;19;20014;-62
2023/05/27 17:17:45;;;;;;;2.55;1.50;;;;;;;;;;13001357;19;20010;-62
2023/05/27 17:22:03;;;;;;;4.78;1.25;;;;;;;;;;13000524;19;20006;-62
2023/05/27 17:26:21;;;;;;;;;;;;;;;;;;13003167;19;20034;-62
2023/05/27 17:30:40;;;;;;;3.72;1.23;;;;;;;;;;13014267;19;19907;-62
2023/05/27 17:34:59;;;;;;;2.67;1.67;;;;;;;;;;13013691;19;20006;-62
2023/05/27 17:39:17;;;;;;;4.63;2.10;;;;;;;;;;13012076;19;20021;-62
2023/05/27 17:43:35;;;;;;;2.92;1.92;;;;;;;;;;13012420;19;20035;-62
2023/05/27 17:47:54;;;;;;;3.92;1.60;;;;;;;;;;13013125;19;20145;-62
2023/05/27 17:52:15;;;;;;;3.90;1.50;;;;;;;;;;13011746;19;20336;-62
2023/05/27 17:56:37;;;;;;;4.40;1.40;;;;;;;;;;13012748;19;20007;-62
2023/05/27 18:00:56;;;;;;;1.97;1.30;;;;;;;;;;13010439;19;20034;-63
2023/05/27 18:05:15;;;;;;;5.15;1.60;;;;;;;;;;13011858;19;20049;-62
2023/05/27 18:09:34;;;;;;;2.97;1.58;;;;;;;;;;13011034;19;20010;-62
2023/05/27 18:13:52;;;;;;;;;;;;;;;;;;13011689;19;20007;-62
2023/05/27 18:18:10;;;;;;;7.47;2.92;;;;;;;;;;13009260;19;19922;-62
2023/05/27 18:22:29;;;;;;;5.40;2.70;;;;;;;;;;13011160;19;20011;-62
2023/05/27 18:26:48;;;;;;;9.10;2.90;;;;;;;;;;13010685;19;20030;-63
2023/05/27 18:31:06;;;;;;;7.20;2.88;;;;;;;;;;13009671;19;20006;-64
2023/05/27 18:35:26;;;;;;;7.78;3.40;;;;;;;;;;13010123;19;20015;-63
2023/05/27 18:39:48;;;;;;;5.07;2.50;;;;;;;;;;13007514;19;20387;-62
2023/05/27 18:44:06;;;;;;;5.80;2.92;;;;;;;;;;13006084;19;20007;-63
2023/05/27 18:48:26;;;;;;;;;;;;;;;;;;13009569;19;20354;-62
2023/05/27 18:52:46;;;;;;;37.22;18.38;;;;;;;;;;13008750;19;20301;-62
2023/05/27 18:57:05;;;;;;;63.58;27.55;;;;;;;;;;13008137;19;20361;-62
2023/05/27 19:01:24;;;;;;;35.08;18.92;;;;;;;;;;13008702;19;20026;-62
2023/05/27 19:05:45;;;;;;;21.08;10.50;;;;;;;;;;13007745;19;20094;-62
2023/05/27 19:10:03;;;;;;;13.20;6.90;;;;;;;;;;13007355;19;20014;-62
2023/05/27 19:14:21;;;;;;;13.93;6.10;;;;;;;;;;13007507;19;20387;-62
2023/05/27 19:18:41;;;;;;;12.38;5.78;;;;;;;;;;13007973;19;20002;-61
2023/05/27 19:22:59;;;;;;;9.10;5.00;;;;;;;;;;13007037;19;20007;-62
2023/05/27 19:27:19;;;;;;;12.32;5.85;;;;;;;;;;13006968;19;20044;-62
2023/05/27 19:31:38;;;;;;;11.60;5.53;;;;;;;;;;13006697;19;20011;-62
2023/05/27 19:35:59;;;;;;;13.85;6.97;;;;;;;;;;13006617;19;20484;-62
2023/05/27 19:40:17;;;;;;;12.98;6.72;;;;;;;;;;13005491;19;20014;-62
2023/05/27 19:44:35;;;;;;;12.73;7.45;;;;;;;;;;13005772;19;20006;-61
2023/05/27 19:48:55;;;;;;;13.82;6.82;;;;;;;;;;13006822;19;20483;-62
2023/05/27 19:53:14;;;;;;;8.82;4.72;;;;;;;;;;13005255;19;20014;-62
2023/05/27 19:57:32;;;;;;;7.82;3.78;;;;;;;;;;13004826;19;20006;-61
2023/05/27 20:01:50;;;;;;;20.98;4.05;;;;;;;;;;13004861;19;20006;-65
2023/05/27 20:06:10;;;;;;;11.32;3.72;;;;;;;;;;13004842;19;20033;-65
2023/05/27 20:10:28;;;;;;;15.57;4.95;;;;;;;;;;13004534;19;20021;-67
2023/05/27 20:14:46;;;;;;;;;;;;;;;;;;13005508;19;20020;-64
2023/05/27 20:19:05;;;;;;;7.72;4.35;;;;;;;;;;13003372;19;19914;-66
2023/05/27 20:23:23;;;;;;;10.55;3.28;;;;;;;;;;13004173;19;20006;-66
2023/05/27 20:27:42;;;;;;;11.32;4.38;;;;;;;;;;13004246;19;20017;-64
2023/05/27 20:32:00;;;;;;;9.20;4.38;;;;;;;;;;13003272;19;20099;-66
2023/05/27 20:36:18;;;;;;;8.60;4.40;;;;;;;;;;13004067;19;20113;-64
2023/05/27 20:40:36;;;;;;;8.68;4.35;;;;;;;;;;13003217;19;20524;-63
2023/05/27 20:44:55;;;;;;;11.93;5.40;;;;;;;;;;13002593;19;20011;-64
2023/05/27 20:49:13;;;;;;;7.57;3.83;;;;;;;;;;13001870;19;20007;-64
2023/05/27 20:53:31;;;;;;;7.15;2.85;;;;;;;;;;13002560;19;20021;-65
2023/05/27 20:57:50;;;;;;;8.10;3.10;;;;;;;;;;13001493;19;20017;-64
2023/05/27 21:02:13;;;;;;;4.65;2.58;;;;;;;;;;13000605;19;19998;-64
2023/05/27 21:06:32;;;;;;;4.15;2.35;;;;;;;;;;13001444;19;20006;-63
2023/05/27 21:10:50;;;;;;;3.85;2.28;;;;;;;;;;13001425;19;20021;-64
2023/05/27 21:15:10;;;;;;;4.50;2.20;;;;;;;;;;13001170;19;20038;-64
2023/05/27 21:19:29;;;;;;;3.72;1.92;;;;;;;;;;13000154;19;20321;-66
2023/05/27 21:23:46;;;;;;;;;;;;;;;;;;13001540;19;20022;-63
2023/05/27 21:28:04;;;;;;;5.70;2.40;;;;;;;;;;12999919;19;19926;-63
2023/05/27 21:32:22;;;;;;;5.28;2.53;;;;;;;;;;13000584;19;20457;-64
2023/05/27 21:36:41;;;;;;;6.47;2.20;;;;;;;;;;13000422;19;20022;-63
2023/05/27 21:40:59;;;;;;;4.63;2.05;;;;;;;;;;12999283;19;20015;-64
2023/05/27 21:45:17;;;;;;;;;;;;;;;;;;13000180;19;20010;-64
2023/05/27 21:49:34;;;;;;;4.20;2.23;;;;;;;;;;12999834;19;19915;-63
2023/05/27 21:53:52;;;;;;;2.88;1.92;;;;;;;;;;12999311;19;20223;-64
2023/05/27 21:58:10;;;;;;;3.22;1.88;;;;;;;;;;12997353;19;20328;-64
2023/05/27 22:02:29;;;;;;;7.45;3.05;;;;;;;;;;12999261;19;20018;-64
2023/05/27 22:06:47;;;;;;;7.90;2.67;;;;;;;;;;12999704;19;20090;-63
2023/05/27 22:11:04;;;;;;;6.70;2.58;;;;;;;;;;12997605;19;20002;-65
2023/05/27 22:15:23;;;;;;;4.70;2.60;;;;;;;;;;13007143;19;20053;-64
2023/05/27 22:19:41;;;;;;;3.63;2.10;;;;;;;;;;13010921;19;20014;-64
2023/05/27 22:23:59;;;;;;;4.07;2.30;;;;;;;;;;13010064;19;20117;-65
2023/05/27 22:28:17;;;;;;;;;;;;;;;;;;13010395;19;20010;-64
2023/05/27 22:32:35;;;;;;;5.10;2.77;;;;;;;;;;13009773;19;19915;-64
2023/05/27 22:36:54;;;;;;;5.63;2.58;;;;;;;;;;13008833;19;20224;-64
2023/05/27 22:41:11;;;;;;;3.90;2.47;;;;;;;;;;13007578;19;20007;-64
2023/05/27 22:45:30;;;;;;;6.03;2.00;;;;;;;;;;13007277;19;20038;-64
2023/05/27 22:50:07;;;;;;;6.43;2.08;;;;;;;;;;13008598;19;20011;-63
2023/05/27 22:54:25;;;;;;;6.90;2.50;;;;;;;;;;13008579;19;20018;-63
2023/05/27 22:58:45;;;;;;;3.28;1.92;;;;;;;;;;13007667;19;20306;-63
2023/05/27 23:03:04;;;;;;;3.33;1.88;;;;;;;;;;13007780;19;20018;-63
2023/05/27 23:07:22;;;;;;;4.10;2.10;;;;;;;;;;13008181;19;20010;-64
2023/05/27 23:11:40;;;;;;;4.95;2.40;;;;;;;;;;13007855;19;20007;-64
2023/05/27 23:16:00;;;;;;;;;;;;;;;;;;13008383;19;20482;-63
2023/05/27 23:20:20;;;;;;;4.57;2.20;;;;;;;;;;13006617;19;19919;-64
2023/05/27 23:24:38;;;;;;;4.13;2.05;;;;;;;;;;13006333;19;20014;-64
2023/05/27 23:28:56;;;;;;;;;;;;;;;;;;13007219;19;20006;-64
2023/05/27 23:33:15;;;;;;;5.03;1.83;;;;;;;;;;13005871;19;19938;-65
2023/05/27 23:37:32;;;;;;;3.30;2.03;;;;;;;;;;13007012;19;20013;-65
2023/05/27 23:41:52;;;;;;;4.45;2.13;;;;;;;;;;13006279;19;20010;-66
2023/05/27 23:46:09;;;;;;;3.50;1.77;;;;;;;;;;13004824;19;20033;-64
2023/05/27 23:50:27;;;;;;;;;;;;;;;;;;13006137;19;20491;-65
2023/05/27 23:54:47;;;;;;;;;;;;;;;;;;13006181;19;20235;-64
2023/05/27 23:59:04;;;;;;;2.65;1.88;;;;;;;;;;13002560;19;19911;-65
